createdAt,value
2017-02-16T00:00:11.439Z,0
2017-02-16T00:01:22.576Z,0
2017-02-16T00:02:32.347Z,0
2017-02-16T00:03:42.574Z,0
2017-02-16T00:04:52.771Z,0
2017-02-16T00:06:02.537Z,0
2017-02-16T00:07:13.240Z,0
2017-02-16T00:08:23.437Z,0
2017-02-16T00:09:34.080Z,0
2017-02-16T00:10:44.741Z,0
2017-02-16T00:11:55.414Z,0
2017-02-16T00:13:06.104Z,0
2017-02-16T00:14:15.889Z,0
2017-02-16T00:15:26.081Z,0
2017-02-16T00:16:35.859Z,0
2017-02-16T00:17:45.619Z,0
2017-02-16T00:18:55.573Z,0
2017-02-16T00:20:05.779Z,0
2017-02-16T00:21:15.535Z,0
2017-02-16T00:22:25.306Z,0
2017-02-16T00:23:35.953Z,0
2017-02-16T00:24:46.690Z,0
2017-02-16T00:25:56.887Z,0
2017-02-16T00:27:06.656Z,0
2017-02-16T00:28:17.337Z,0
2017-02-16T00:29:28.430Z,0
2017-02-16T00:30:39.568Z,0
2017-02-16T00:31:49.322Z,0
2017-02-16T00:32:59.076Z,0
2017-02-16T00:34:09.293Z,0
2017-02-16T00:35:19.077Z,0
2017-02-16T00:36:28.913Z,0
2017-02-16T00:37:40.008Z,0
2017-02-16T00:38:49.767Z,0
2017-02-16T00:39:59.070Z,0
2017-02-16T00:41:09.714Z,0
2017-02-16T00:42:20.965Z,0
2017-02-16T00:43:30.287Z,0
2017-02-16T00:44:40.482Z,0
2017-02-16T00:45:51.153Z,0
2017-02-16T00:47:01.370Z,0
2017-02-16T00:48:11.208Z,0
2017-02-16T00:49:20.980Z,0
2017-02-16T00:50:31.650Z,0
2017-02-16T00:51:41.406Z,0
2017-02-16T00:52:52.076Z,0
2017-02-16T00:54:02.765Z,0
2017-02-16T00:55:12.078Z,0
2017-02-16T00:56:21.855Z,0
2017-02-16T00:57:31.621Z,0
2017-02-16T00:58:41.414Z,0
2017-02-16T00:59:51.659Z,0
2017-02-16T01:01:01.408Z,0
2017-02-16T01:02:12.081Z,0
2017-02-16T01:03:22.293Z,0
2017-02-16T01:04:32.938Z,0
2017-02-16T01:05:43.204Z,0
2017-02-16T01:06:53.413Z,0
2017-02-16T01:08:04.102Z,0
2017-02-16T01:09:14.755Z,0
2017-02-16T01:10:25.422Z,0
2017-02-16T01:11:35.689Z,0
2017-02-16T01:12:46.791Z,0
2017-02-16T01:13:57.014Z,0
2017-02-16T01:15:08.120Z,0
2017-02-16T01:16:17.434Z,0
2017-02-16T01:17:27.712Z,0
2017-02-16T01:18:37.486Z,0
2017-02-16T01:19:47.244Z,0
2017-02-16T01:20:58.324Z,0
2017-02-16T01:22:09.424Z,0
2017-02-16T01:23:21.033Z,0
2017-02-16T01:24:32.116Z,0
2017-02-16T01:25:41.869Z,0
2017-02-16T01:26:52.517Z,0
2017-02-16T01:28:03.184Z,0
2017-02-16T01:29:12.571Z,0
2017-02-16T01:30:22.778Z,0
2017-02-16T01:31:32.970Z,0
2017-02-16T01:32:43.208Z,0
2017-02-16T01:33:53.011Z,0
2017-02-16T01:35:03.278Z,0
2017-02-16T01:36:13.028Z,0
2017-02-16T01:37:22.793Z,0
2017-02-16T01:38:32.997Z,0
2017-02-16T01:39:42.305Z,0
2017-02-16T01:40:52.117Z,0
2017-02-16T01:42:01.869Z,0
2017-02-16T01:43:12.078Z,0
2017-02-16T01:44:22.278Z,0
2017-02-16T01:45:32.493Z,0
2017-02-16T01:46:43.630Z,0
2017-02-16T01:47:53.382Z,0
2017-02-16T01:49:04.023Z,0
2017-02-16T01:50:14.688Z,0
2017-02-16T01:51:24.903Z,0
2017-02-16T01:52:35.164Z,0
2017-02-16T01:53:44.956Z,0
2017-02-16T01:54:56.077Z,0
2017-02-16T01:56:07.625Z,0
2017-02-16T01:57:17.840Z,0
2017-02-16T01:58:27.717Z,0
2017-02-16T01:59:38.362Z,0
2017-02-16T02:00:49.012Z,0
2017-02-16T02:01:58.766Z,0
2017-02-16T02:03:08.977Z,0
2017-02-16T02:04:19.228Z,0
2017-02-16T02:05:29.427Z,0
2017-02-16T02:06:39.626Z,0
2017-02-16T02:07:50.291Z,0
2017-02-16T02:09:00.063Z,0
2017-02-16T02:10:10.298Z,0
2017-02-16T02:11:20.074Z,0
2017-02-16T02:12:31.166Z,0
2017-02-16T02:13:41.365Z,0
2017-02-16T02:14:51.129Z,0
2017-02-16T02:16:01.496Z,0
2017-02-16T02:17:11.275Z,0
2017-02-16T02:18:21.493Z,0
2017-02-16T02:19:31.252Z,0
2017-02-16T02:20:41.450Z,0
2017-02-16T02:21:51.705Z,0
2017-02-16T02:23:01.913Z,0
2017-02-16T02:24:12.119Z,0
2017-02-16T02:25:22.340Z,0
2017-02-16T02:26:31.659Z,0
2017-02-16T02:27:41.470Z,0
2017-02-16T02:28:52.117Z,0
2017-02-16T02:30:02.329Z,0
2017-02-16T02:31:12.979Z,0
2017-02-16T02:32:23.633Z,0
2017-02-16T02:33:33.434Z,0
2017-02-16T02:34:44.094Z,0
2017-02-16T02:35:54.299Z,0
2017-02-16T02:37:04.071Z,0
2017-02-16T02:38:14.278Z,0
2017-02-16T02:39:24.551Z,0
2017-02-16T02:40:33.861Z,0
2017-02-16T02:41:44.060Z,0
2017-02-16T02:42:54.302Z,0
2017-02-16T02:44:04.503Z,0
2017-02-16T02:45:14.324Z,0
2017-02-16T02:46:24.530Z,0
2017-02-16T02:47:35.193Z,0
2017-02-16T02:48:45.407Z,0
2017-02-16T02:49:56.058Z,0
2017-02-16T02:51:06.747Z,0
2017-02-16T02:52:16.960Z,0
2017-02-16T02:53:27.161Z,0
2017-02-16T02:54:36.922Z,0
2017-02-16T02:55:46.678Z,0
2017-02-16T02:56:57.835Z,0
2017-02-16T02:58:08.474Z,0
2017-02-16T02:59:18.227Z,0
2017-02-16T03:00:28.004Z,0
2017-02-16T03:01:38.216Z,0
2017-02-16T03:02:48.919Z,0
2017-02-16T03:03:58.726Z,0
2017-02-16T03:05:09.811Z,0
2017-02-16T03:06:20.498Z,0
2017-02-16T03:07:29.835Z,0
2017-02-16T03:08:39.636Z,0
2017-02-16T03:09:48.961Z,0
2017-02-16T03:11:00.043Z,0
2017-02-16T03:12:10.696Z,0
2017-02-16T03:13:20.455Z,0
2017-02-16T03:14:30.738Z,0
2017-02-16T03:15:40.959Z,0
2017-02-16T03:16:50.696Z,0
2017-02-16T03:18:00.908Z,0
2017-02-16T03:19:11.550Z,0
2017-02-16T03:20:22.272Z,0
2017-02-16T03:21:31.580Z,0
2017-02-16T03:22:41.762Z,0
2017-02-16T03:23:51.558Z,0
2017-02-16T03:25:02.199Z,0
2017-02-16T03:26:13.342Z,0
2017-02-16T03:27:23.997Z,0
2017-02-16T03:28:34.200Z,0
2017-02-16T03:29:44.434Z,0
2017-02-16T03:30:55.085Z,0
2017-02-16T03:32:05.768Z,0
2017-02-16T03:33:15.535Z,0
2017-02-16T03:34:25.293Z,0
2017-02-16T03:35:35.063Z,0
2017-02-16T03:36:45.264Z,0
2017-02-16T03:37:55.565Z,0
2017-02-16T03:39:06.240Z,0
2017-02-16T03:40:16.433Z,0
2017-02-16T03:41:26.645Z,0
2017-02-16T03:42:36.423Z,0
2017-02-16T03:43:46.261Z,0
2017-02-16T03:44:57.796Z,0
2017-02-16T03:46:08.000Z,0
2017-02-16T03:47:18.205Z,0
2017-02-16T03:48:28.451Z,0
2017-02-16T03:49:38.260Z,0
2017-02-16T03:50:48.022Z,0
2017-02-16T03:51:57.343Z,0
2017-02-16T03:53:07.995Z,0
2017-02-16T03:54:17.304Z,0
2017-02-16T03:55:27.574Z,0
2017-02-16T03:56:37.786Z,0
2017-02-16T03:57:48.432Z,0
2017-02-16T03:58:58.199Z,0
2017-02-16T04:00:08.430Z,0
2017-02-16T04:01:17.797Z,0
2017-02-16T04:02:27.115Z,0
2017-02-16T04:03:37.778Z,0
2017-02-16T04:04:47.539Z,0
2017-02-16T04:05:57.747Z,0
2017-02-16T04:07:08.446Z,0
2017-02-16T04:08:18.665Z,0
2017-02-16T04:09:29.316Z,0
2017-02-16T04:10:39.541Z,0
2017-02-16T04:11:49.759Z,0
2017-02-16T04:13:00.453Z,0
2017-02-16T04:14:10.652Z,0
2017-02-16T04:15:20.422Z,0
2017-02-16T04:16:30.622Z,0
2017-02-16T04:17:41.290Z,0
2017-02-16T04:18:52.002Z,0
2017-02-16T04:20:03.117Z,0
2017-02-16T04:21:12.876Z,0
2017-02-16T04:22:23.972Z,0
2017-02-16T04:23:34.626Z,0
2017-02-16T04:24:45.322Z,0
2017-02-16T04:25:55.505Z,0
2017-02-16T04:27:05.714Z,0
2017-02-16T04:28:15.903Z,0
2017-02-16T04:29:26.546Z,0
2017-02-16T04:30:36.356Z,0
2017-02-16T04:31:46.549Z,0
2017-02-16T04:32:57.201Z,0
2017-02-16T04:34:08.292Z,0
2017-02-16T04:35:18.942Z,0
2017-02-16T04:36:29.189Z,0
2017-02-16T04:37:40.293Z,0
2017-02-16T04:38:50.941Z,0
2017-02-16T04:40:01.139Z,0
2017-02-16T04:41:11.344Z,0
2017-02-16T04:42:21.149Z,0
2017-02-16T04:43:31.346Z,0
2017-02-16T04:44:41.558Z,0
2017-02-16T04:45:51.327Z,0
2017-02-16T04:47:00.666Z,0
2017-02-16T04:48:10.583Z,0
2017-02-16T04:49:20.777Z,0
2017-02-16T04:50:30.097Z,0
2017-02-16T04:51:39.858Z,0
2017-02-16T04:52:50.060Z,0
2017-02-16T04:54:00.894Z,0
2017-02-16T04:55:11.147Z,0
2017-02-16T04:56:21.369Z,0
2017-02-16T04:57:31.146Z,0
2017-02-16T04:58:40.910Z,0
2017-02-16T04:59:50.271Z,0
2017-02-16T05:01:00.024Z,0
2017-02-16T05:02:10.250Z,0
2017-02-16T05:03:20.447Z,0
2017-02-16T05:04:30.641Z,0
2017-02-16T05:05:41.333Z,0
2017-02-16T05:06:51.110Z,0
2017-02-16T05:08:00.432Z,0
2017-02-16T05:09:10.217Z,0
2017-02-16T05:10:19.998Z,0
2017-02-16T05:11:30.291Z,0
2017-02-16T05:12:40.049Z,0
2017-02-16T05:13:50.264Z,0
2017-02-16T05:15:00.483Z,0
2017-02-16T05:16:10.259Z,0
2017-02-16T05:17:20.505Z,0
2017-02-16T05:18:30.285Z,0
2017-02-16T05:19:40.495Z,0
2017-02-16T05:20:51.167Z,0
2017-02-16T05:22:01.801Z,0
2017-02-16T05:23:11.803Z,0
2017-02-16T05:24:22.451Z,0
2017-02-16T05:25:33.544Z,0
2017-02-16T05:26:44.200Z,0
2017-02-16T05:27:53.958Z,0
2017-02-16T05:29:05.078Z,0
2017-02-16T05:30:14.825Z,0
2017-02-16T05:31:25.025Z,0
2017-02-16T05:32:35.221Z,0
2017-02-16T05:33:45.870Z,0
2017-02-16T05:34:56.128Z,0
2017-02-16T05:36:05.455Z,0
2017-02-16T05:37:15.662Z,0
2017-02-16T05:38:25.868Z,0
2017-02-16T05:39:35.636Z,0
2017-02-16T05:40:46.476Z,0
2017-02-16T05:41:57.131Z,0
2017-02-16T05:43:07.353Z,0
2017-02-16T05:44:17.581Z,0
2017-02-16T05:45:27.778Z,0
2017-02-16T05:46:38.474Z,0
2017-02-16T05:47:49.117Z,0
2017-02-16T05:48:58.886Z,0
2017-02-16T05:50:08.206Z,0
2017-02-16T05:51:18.415Z,0
2017-02-16T05:52:29.140Z,0
2017-02-16T05:53:39.351Z,0
2017-02-16T05:54:49.111Z,0
2017-02-16T05:55:59.758Z,0
2017-02-16T05:57:09.969Z,0
2017-02-16T05:58:19.780Z,0
2017-02-16T05:59:29.983Z,0
2017-02-16T06:00:40.634Z,0
2017-02-16T06:01:51.724Z,0
2017-02-16T06:03:02.357Z,0
2017-02-16T06:04:12.603Z,0
2017-02-16T06:05:22.372Z,0
2017-02-16T06:06:32.624Z,0
2017-02-16T06:07:43.293Z,0
2017-02-16T06:08:52.609Z,0
2017-02-16T06:10:02.946Z,0
2017-02-16T06:11:13.597Z,0
2017-02-16T06:12:23.801Z,0
2017-02-16T06:13:33.987Z,0
2017-02-16T06:14:44.221Z,0
2017-02-16T06:15:55.804Z,0
2017-02-16T06:17:05.566Z,0
2017-02-16T06:18:15.332Z,0
2017-02-16T06:19:25.113Z,0
2017-02-16T06:20:34.889Z,0
2017-02-16T06:21:45.147Z,0
2017-02-16T06:22:55.368Z,0
2017-02-16T06:24:05.560Z,0
2017-02-16T06:25:16.204Z,0
2017-02-16T06:26:25.952Z,0
2017-02-16T06:27:35.916Z,0
2017-02-16T06:28:46.559Z,0
2017-02-16T06:29:56.769Z,0
2017-02-16T06:31:07.449Z,0
2017-02-16T06:32:17.659Z,0
2017-02-16T06:33:27.924Z,0
2017-02-16T06:34:38.128Z,0
2017-02-16T06:35:49.658Z,0
2017-02-16T06:37:00.296Z,0
2017-02-16T06:38:10.945Z,0
2017-02-16T06:39:21.317Z,0
2017-02-16T06:40:31.105Z,0
2017-02-16T06:41:41.341Z,0
2017-02-16T06:42:52.013Z,0
2017-02-16T06:44:02.685Z,0
2017-02-16T06:45:12.934Z,0
2017-02-16T06:46:24.012Z,5
2017-02-16T06:47:33.776Z,5
2017-02-16T06:48:44.422Z,5
2017-02-16T06:49:54.628Z,5
2017-02-16T06:51:04.877Z,5
2017-02-16T06:52:14.630Z,5
2017-02-16T06:53:24.841Z,5
2017-02-16T06:54:35.292Z,5
2017-02-16T06:55:45.481Z,5
2017-02-16T06:56:56.176Z,5
2017-02-16T06:58:05.940Z,5
2017-02-16T06:59:17.849Z,5
2017-02-16T07:00:28.739Z,10
2017-02-16T07:01:38.932Z,10
2017-02-16T07:02:48.776Z,5
2017-02-16T07:03:59.515Z,5
2017-02-16T07:05:09.274Z,10
2017-02-16T07:06:19.728Z,10
2017-02-16T07:07:30.353Z,10
2017-02-16T07:08:39.768Z,10
2017-02-16T07:09:49.102Z,10
2017-02-16T07:10:59.538Z,10
2017-02-16T07:12:09.732Z,10
2017-02-16T07:13:19.772Z,10
2017-02-16T07:14:30.272Z,10
2017-02-16T07:15:41.537Z,10
2017-02-16T07:16:52.227Z,10
2017-02-16T07:18:01.665Z,10
2017-02-16T07:19:12.321Z,10
2017-02-16T07:20:23.022Z,15
2017-02-16T07:21:33.679Z,15
2017-02-16T07:22:44.326Z,15
2017-02-16T07:23:54.553Z,15
2017-02-16T07:25:05.184Z,15
2017-02-16T07:26:15.137Z,15
2017-02-16T07:27:25.373Z,20
2017-02-16T07:28:35.142Z,20
2017-02-16T07:29:46.145Z,20
2017-02-16T07:30:56.430Z,20
2017-02-16T07:32:06.674Z,20
2017-02-16T07:33:17.421Z,20
2017-02-16T07:34:28.088Z,20
2017-02-16T07:35:38.935Z,20
2017-02-16T07:36:49.984Z,20
2017-02-16T07:37:59.816Z,20
2017-02-16T07:39:09.587Z,20
2017-02-16T07:40:21.404Z,20
2017-02-16T07:41:32.496Z,20
2017-02-16T07:42:42.270Z,25
2017-02-16T07:43:53.499Z,25
2017-02-16T07:45:03.690Z,25
2017-02-16T07:46:14.278Z,30
2017-02-16T07:47:25.265Z,30
2017-02-16T07:48:36.793Z,30
2017-02-16T07:49:46.962Z,30
2017-02-16T07:50:57.273Z,30
2017-02-16T07:52:08.612Z,25
2017-02-16T07:53:20.667Z,25
2017-02-16T07:54:31.430Z,30
2017-02-16T07:55:43.195Z,30
2017-02-16T07:56:54.560Z,30
2017-02-16T07:58:06.317Z,25
2017-02-16T07:59:16.470Z,25
2017-02-16T08:00:26.225Z,25
2017-02-16T08:01:36.320Z,25
2017-02-16T08:02:46.821Z,30
2017-02-16T08:03:57.730Z,30
2017-02-16T08:05:07.977Z,30
2017-02-16T08:06:18.820Z,35
2017-02-16T08:07:29.386Z,35
2017-02-16T08:08:40.311Z,35
2017-02-16T08:09:50.509Z,35
2017-02-16T08:11:00.269Z,35
2017-02-16T08:12:11.380Z,35
2017-02-16T08:13:20.752Z,35
2017-02-16T08:14:31.113Z,30
2017-02-16T08:15:41.052Z,30
2017-02-16T08:16:50.899Z,25
2017-02-16T08:18:01.558Z,25
2017-02-16T08:19:11.967Z,25
2017-02-16T08:20:21.800Z,25
2017-02-16T08:21:32.015Z,30
2017-02-16T08:22:41.569Z,30
2017-02-16T08:23:53.537Z,35
2017-02-16T08:25:04.633Z,35
2017-02-16T08:26:15.446Z,35
2017-02-16T08:27:24.761Z,35
2017-02-16T08:28:35.438Z,35
2017-02-16T08:29:45.658Z,40
2017-02-16T08:30:57.241Z,40
2017-02-16T08:32:07.939Z,45
2017-02-16T08:33:17.701Z,45
2017-02-16T08:34:28.355Z,50
2017-02-16T08:35:38.495Z,50
2017-02-16T08:36:48.279Z,50
2017-02-16T08:37:58.537Z,50
2017-02-16T08:39:08.741Z,45
2017-02-16T08:40:20.213Z,45
2017-02-16T08:41:31.004Z,45
2017-02-16T08:42:41.203Z,45
2017-02-16T08:43:51.459Z,40
2017-02-16T08:45:02.117Z,40
2017-02-16T08:46:14.074Z,40
2017-02-16T08:47:23.503Z,40
2017-02-16T08:48:33.260Z,40
2017-02-16T08:49:43.852Z,40
2017-02-16T08:50:54.487Z,40
2017-02-16T08:52:05.139Z,35
2017-02-16T08:53:15.805Z,35
2017-02-16T08:54:26.128Z,35
2017-02-16T08:55:36.664Z,35
2017-02-16T08:56:46.921Z,35
2017-02-16T08:57:57.146Z,45
2017-02-16T08:59:06.950Z,45
2017-02-16T09:00:17.908Z,45
2017-02-16T09:01:28.606Z,40
2017-02-16T09:02:37.919Z,40
2017-02-16T09:03:48.367Z,40
2017-02-16T09:04:59.231Z,45
2017-02-16T09:06:11.153Z,45
2017-02-16T09:07:21.695Z,45
2017-02-16T09:08:32.017Z,45
2017-02-16T09:09:42.784Z,45
2017-02-16T09:10:53.221Z,45
2017-02-16T09:12:03.553Z,45
2017-02-16T09:13:13.541Z,40
2017-02-16T09:14:23.757Z,40
2017-02-16T09:15:34.916Z,40
2017-02-16T09:16:44.689Z,45
2017-02-16T09:17:54.696Z,45
2017-02-16T09:19:05.339Z,45
2017-02-16T09:20:15.742Z,40
2017-02-16T09:21:27.034Z,45
2017-02-16T09:22:37.427Z,45
2017-02-16T09:23:47.673Z,45
2017-02-16T09:24:59.449Z,45
2017-02-16T09:26:10.122Z,45
2017-02-16T09:27:19.891Z,45
2017-02-16T09:28:30.719Z,45
2017-02-16T09:29:40.886Z,45
2017-02-16T09:30:50.717Z,50
2017-02-16T09:32:01.806Z,50
2017-02-16T09:33:13.396Z,50
2017-02-16T09:34:23.615Z,50
2017-02-16T09:35:33.940Z,50
2017-02-16T09:36:44.667Z,50
2017-02-16T09:37:55.753Z,55
2017-02-16T09:39:05.961Z,55
2017-02-16T09:40:16.177Z,55
2017-02-16T09:41:25.937Z,60
2017-02-16T09:42:36.837Z,60
2017-02-16T09:43:47.164Z,60
2017-02-16T09:44:57.393Z,60
2017-02-16T09:46:07.612Z,65
2017-02-16T09:47:18.126Z,65
2017-02-16T09:48:28.842Z,65
2017-02-16T09:49:38.809Z,65
2017-02-16T09:50:49.000Z,65
2017-02-16T09:51:58.916Z,65
2017-02-16T09:53:09.125Z,70
2017-02-16T09:54:20.371Z,75
2017-02-16T09:55:30.296Z,80
2017-02-16T09:56:40.948Z,85
2017-02-16T09:57:51.640Z,90
2017-02-16T09:59:02.261Z,95
2017-02-16T10:00:12.959Z,100
2017-02-16T10:01:24.090Z,105
2017-02-16T10:02:34.410Z,105
2017-02-16T10:03:44.966Z,100
2017-02-16T10:04:54.725Z,90
2017-02-16T10:06:04.546Z,90
2017-02-16T10:07:14.462Z,90
2017-02-16T10:08:24.835Z,90
2017-02-16T10:09:34.166Z,90
2017-02-16T10:10:44.420Z,80
2017-02-16T10:11:55.139Z,85
2017-02-16T10:13:06.468Z,90
2017-02-16T10:14:17.465Z,80
2017-02-16T10:15:28.916Z,85
2017-02-16T10:16:38.680Z,80
2017-02-16T10:17:50.813Z,85
2017-02-16T10:19:02.342Z,85
2017-02-16T10:20:12.801Z,100
2017-02-16T10:21:24.818Z,100
2017-02-16T10:23:18.847Z,95
2017-02-16T10:24:29.009Z,95
2017-02-16T10:25:39.675Z,95
2017-02-16T10:26:50.000Z,95
2017-02-16T10:28:01.051Z,105
2017-02-16T10:29:11.501Z,105
2017-02-16T10:30:21.494Z,105
2017-02-16T10:31:32.132Z,105
2017-02-16T10:32:42.355Z,105
2017-02-16T10:33:53.591Z,105
2017-02-16T10:35:03.654Z,105
2017-02-16T10:36:13.908Z,105
2017-02-16T10:37:25.076Z,105
2017-02-16T10:38:35.742Z,100
2017-02-16T10:39:46.382Z,100
2017-02-16T10:41:08.382Z,105
2017-02-16T10:42:24.723Z,100
2017-02-16T10:43:44.005Z,100
2017-02-16T10:45:00.859Z,105
2017-02-16T10:46:18.770Z,95
2017-02-16T10:47:34.004Z,100
2017-02-16T10:48:45.760Z,100
2017-02-16T10:49:59.445Z,85
2017-02-16T10:51:10.663Z,85
2017-02-16T10:52:22.693Z,100
2017-02-16T10:53:33.461Z,100
2017-02-16T10:54:45.414Z,100
2017-02-16T10:55:58.083Z,100
2017-02-16T10:57:09.473Z,100
2017-02-16T10:58:19.464Z,100
2017-02-16T10:59:29.309Z,100
2017-02-16T11:00:39.194Z,100
2017-02-16T11:01:50.014Z,110
2017-02-16T11:02:59.476Z,120
2017-02-16T11:04:08.809Z,125
2017-02-16T11:05:18.801Z,125
2017-02-16T11:06:29.612Z,115
2017-02-16T11:07:39.821Z,105
2017-02-16T11:08:50.077Z,100
2017-02-16T11:10:02.134Z,105
2017-02-16T11:11:14.967Z,105
2017-02-16T11:12:27.912Z,105
2017-02-16T11:13:39.643Z,110
2017-02-16T11:14:52.132Z,120
2017-02-16T11:16:04.272Z,125
2017-02-16T11:17:14.390Z,130
2017-02-16T11:18:24.243Z,135
2017-02-16T11:19:35.459Z,125
2017-02-16T11:20:46.106Z,130
2017-02-16T11:21:55.977Z,135
2017-02-16T11:23:06.399Z,120
2017-02-16T11:24:18.096Z,115
2017-02-16T11:25:28.837Z,120
2017-02-16T11:26:40.146Z,115
2017-02-16T11:27:50.656Z,125
2017-02-16T11:29:01.763Z,130
2017-02-16T11:30:11.542Z,145
2017-02-16T11:31:22.251Z,130
2017-02-16T11:32:32.926Z,125
2017-02-16T11:33:42.720Z,125
2017-02-16T11:34:52.941Z,135
2017-02-16T11:36:02.725Z,135
2017-02-16T11:37:13.445Z,130
2017-02-16T11:38:24.099Z,130
2017-02-16T11:39:33.865Z,130
2017-02-16T11:40:44.505Z,125
2017-02-16T11:41:55.158Z,115
2017-02-16T11:43:05.844Z,125
2017-02-16T11:44:15.593Z,125
2017-02-16T11:45:24.929Z,135
2017-02-16T11:46:36.060Z,135
2017-02-16T11:47:45.824Z,125
2017-02-16T11:48:56.527Z,125
2017-02-16T11:50:06.742Z,130
2017-02-16T11:51:17.403Z,130
2017-02-16T11:52:28.103Z,135
2017-02-16T11:53:37.430Z,120
2017-02-16T11:54:48.177Z,115
2017-02-16T11:55:58.403Z,115
2017-02-16T11:57:09.949Z,110
2017-02-16T11:58:20.164Z,110
2017-02-16T11:59:30.395Z,95
2017-02-16T12:00:41.108Z,90
2017-02-16T12:01:50.866Z,85
2017-02-16T12:03:01.953Z,75
2017-02-16T12:04:12.193Z,75
2017-02-16T12:05:22.392Z,75
2017-02-16T12:06:33.546Z,80
2017-02-16T12:07:44.649Z,80
2017-02-16T12:08:54.851Z,85
2017-02-16T12:10:04.630Z,75
2017-02-16T12:11:15.317Z,75
2017-02-16T12:12:24.701Z,70
2017-02-16T12:13:34.466Z,75
2017-02-16T12:14:45.163Z,65
2017-02-16T12:15:55.375Z,60
2017-02-16T12:17:05.578Z,60
2017-02-16T12:18:16.289Z,65
2017-02-16T12:19:26.057Z,65
2017-02-16T12:20:35.825Z,70
2017-02-16T12:21:45.594Z,70
2017-02-16T12:22:55.368Z,85
2017-02-16T12:24:05.618Z,95
2017-02-16T12:25:14.942Z,95
2017-02-16T12:26:24.746Z,95
2017-02-16T12:27:35.404Z,90
2017-02-16T12:28:45.606Z,80
2017-02-16T12:29:55.875Z,80
2017-02-16T12:31:06.109Z,80
2017-02-16T12:32:15.457Z,100
2017-02-16T12:33:25.694Z,90
2017-02-16T12:34:35.001Z,80
2017-02-16T12:35:44.817Z,75
2017-02-16T12:36:54.585Z,65
2017-02-16T12:38:04.801Z,60
2017-02-16T12:39:14.566Z,60
2017-02-16T12:40:24.330Z,60
2017-02-16T12:41:33.891Z,65
2017-02-16T12:42:44.087Z,75
2017-02-16T12:43:54.729Z,95
2017-02-16T12:45:04.917Z,110
2017-02-16T12:46:14.699Z,110
2017-02-16T12:47:24.937Z,105
2017-02-16T12:48:34.732Z,100
2017-02-16T12:49:44.499Z,90
2017-02-16T12:50:53.816Z,85
2017-02-16T12:52:03.153Z,90
2017-02-16T12:53:13.411Z,100
2017-02-16T12:54:22.750Z,85
2017-02-16T12:55:33.399Z,80
2017-02-16T12:56:44.029Z,75
2017-02-16T12:57:53.810Z,70
2017-02-16T12:59:04.088Z,70
2017-02-16T13:00:13.867Z,70
2017-02-16T13:01:24.067Z,65
2017-02-16T13:02:33.379Z,65
2017-02-16T13:03:43.125Z,65
2017-02-16T13:04:52.930Z,65
2017-02-16T13:06:02.743Z,70
2017-02-16T13:07:12.058Z,75
2017-02-16T13:08:22.246Z,75
2017-02-16T13:09:32.011Z,75
2017-02-16T13:10:41.827Z,70
2017-02-16T13:11:51.601Z,70
2017-02-16T13:13:00.921Z,75
2017-02-16T13:14:11.575Z,85
2017-02-16T13:15:21.340Z,90
2017-02-16T13:16:30.705Z,85
2017-02-16T13:17:40.058Z,90
2017-02-16T13:18:49.395Z,95
2017-02-16T13:19:59.603Z,80
2017-02-16T13:21:09.804Z,85
2017-02-16T13:22:20.477Z,100
2017-02-16T13:23:30.239Z,100
2017-02-16T13:24:40.007Z,80
2017-02-16T13:25:49.320Z,75
2017-02-16T13:26:59.556Z,75
2017-02-16T13:28:09.369Z,70
2017-02-16T13:29:18.736Z,70
2017-02-16T13:30:29.378Z,70
2017-02-16T13:31:39.147Z,65
2017-02-16T13:32:49.344Z,70
2017-02-16T13:34:00.033Z,70
2017-02-16T13:35:09.795Z,75
2017-02-16T13:36:19.101Z,80
2017-02-16T13:37:28.862Z,85
2017-02-16T13:38:38.618Z,85
2017-02-16T13:39:48.441Z,80
2017-02-16T13:40:58.208Z,85
2017-02-16T13:42:07.962Z,80
2017-02-16T13:43:17.715Z,80
2017-02-16T13:44:27.492Z,75
2017-02-16T13:45:37.298Z,70
2017-02-16T13:46:47.073Z,60
2017-02-16T13:47:57.262Z,55
2017-02-16T13:49:07.465Z,45
2017-02-16T13:50:17.667Z,45
2017-02-16T13:51:27.942Z,50
2017-02-16T13:52:38.132Z,50
2017-02-16T13:53:47.466Z,55
2017-02-16T13:54:57.217Z,45
2017-02-16T13:56:07.443Z,45
2017-02-16T13:57:17.446Z,45
2017-02-16T13:58:27.663Z,45
2017-02-16T13:59:37.887Z,45
2017-02-16T14:00:47.654Z,45
2017-02-16T14:01:57.406Z,45
2017-02-16T14:03:07.669Z,40
2017-02-16T14:04:17.889Z,40
2017-02-16T14:05:27.650Z,40
2017-02-16T14:06:37.416Z,35
2017-02-16T14:07:46.746Z,40
2017-02-16T14:08:57.031Z,40
2017-02-16T14:10:06.796Z,45
2017-02-16T14:11:16.555Z,45
2017-02-16T14:12:26.736Z,45
2017-02-16T14:13:36.056Z,45
2017-02-16T14:14:46.354Z,40
2017-02-16T14:15:55.687Z,45
2017-02-16T14:17:05.489Z,45
2017-02-16T14:18:14.802Z,50
2017-02-16T14:19:24.997Z,50
2017-02-16T14:20:34.824Z,45
2017-02-16T14:21:45.463Z,45
2017-02-16T14:22:55.678Z,45
2017-02-16T14:24:05.001Z,50
2017-02-16T14:25:15.650Z,45
2017-02-16T14:26:25.477Z,45
2017-02-16T14:27:35.674Z,45
2017-02-16T14:28:45.427Z,45
2017-02-16T14:29:55.231Z,45
2017-02-16T14:31:05.420Z,45
2017-02-16T14:32:14.794Z,45
2017-02-16T14:33:24.568Z,45
2017-02-16T14:34:35.197Z,45
2017-02-16T14:35:45.406Z,45
2017-02-16T14:36:55.167Z,50
2017-02-16T14:38:05.423Z,50
2017-02-16T14:39:14.749Z,50
2017-02-16T14:40:24.970Z,50
2017-02-16T14:41:34.328Z,50
2017-02-16T14:42:44.089Z,50
2017-02-16T14:43:53.470Z,50
2017-02-16T14:45:03.222Z,50
2017-02-16T14:46:13.425Z,50
2017-02-16T14:47:24.513Z,50
2017-02-16T14:48:33.831Z,45
2017-02-16T14:49:43.624Z,40
2017-02-16T14:50:53.399Z,40
2017-02-16T14:52:03.609Z,35
2017-02-16T14:53:13.403Z,35
2017-02-16T14:54:22.729Z,35
2017-02-16T14:55:32.124Z,35
2017-02-16T14:56:42.323Z,35
2017-02-16T14:57:51.636Z,30
2017-02-16T14:59:01.396Z,30
2017-02-16T15:00:11.600Z,30
2017-02-16T15:01:21.899Z,30
2017-02-16T15:02:31.664Z,30
2017-02-16T15:03:41.849Z,30
2017-02-16T15:04:52.926Z,30
2017-02-16T15:06:03.124Z,30
2017-02-16T15:07:13.023Z,35
2017-02-16T15:08:23.222Z,35
2017-02-16T15:09:32.991Z,35
2017-02-16T15:10:42.323Z,35
2017-02-16T15:11:52.110Z,35
2017-02-16T15:13:01.497Z,35
2017-02-16T15:14:11.261Z,30
2017-02-16T15:15:20.585Z,30
2017-02-16T15:16:30.798Z,30
2017-02-16T15:17:40.576Z,25
2017-02-16T15:18:50.816Z,25
2017-02-16T15:20:01.009Z,25
2017-02-16T15:21:11.205Z,20
2017-02-16T15:22:20.968Z,20
2017-02-16T15:23:30.746Z,20
2017-02-16T15:24:41.007Z,20
2017-02-16T15:25:51.204Z,20
2017-02-16T15:27:00.994Z,25
2017-02-16T15:28:10.754Z,25
2017-02-16T15:29:20.058Z,25
2017-02-16T15:30:29.876Z,25
2017-02-16T15:31:39.219Z,25
2017-02-16T15:32:49.402Z,20
2017-02-16T15:33:59.597Z,20
2017-02-16T15:35:09.360Z,20
2017-02-16T15:36:19.623Z,20
2017-02-16T15:37:29.395Z,20
2017-02-16T15:38:39.608Z,20
2017-02-16T15:39:49.803Z,20
2017-02-16T15:40:59.568Z,20
2017-02-16T15:42:09.371Z,20
2017-02-16T15:43:19.117Z,20
2017-02-16T15:44:28.887Z,20
2017-02-16T15:45:39.533Z,20
2017-02-16T15:46:49.762Z,15
2017-02-16T15:47:59.567Z,15
2017-02-16T15:49:09.332Z,15
2017-02-16T15:50:19.539Z,10
2017-02-16T15:51:29.320Z,10
2017-02-16T15:52:39.979Z,10
2017-02-16T15:53:50.256Z,10
2017-02-16T15:55:00.463Z,10
2017-02-16T15:56:10.670Z,10
2017-02-16T15:57:21.309Z,10
2017-02-16T15:58:30.619Z,10
2017-02-16T15:59:41.211Z,10
2017-02-16T16:00:55.014Z,10
2017-02-16T16:02:06.117Z,10
2017-02-16T16:03:16.023Z,10
2017-02-16T16:04:28.977Z,10
2017-02-16T16:05:39.220Z,10
2017-02-16T16:06:50.825Z,10
2017-02-16T16:08:01.863Z,5
2017-02-16T16:09:13.840Z,5
2017-02-16T16:10:27.145Z,5
2017-02-16T16:11:37.719Z,5
2017-02-16T16:12:49.699Z,5
2017-02-16T16:14:00.210Z,5
2017-02-16T16:15:10.948Z,5
2017-02-16T16:16:24.255Z,5
2017-02-16T16:17:35.544Z,5
2017-02-16T16:18:44.870Z,5
2017-02-16T16:19:57.765Z,0
2017-02-16T16:21:08.617Z,0
2017-02-16T16:22:18.932Z,0
2017-02-16T16:23:28.763Z,0
2017-02-16T16:24:39.084Z,0
2017-02-16T16:25:49.867Z,0
2017-02-16T16:27:00.071Z,0
2017-02-16T16:28:11.207Z,0
2017-02-16T16:29:21.619Z,0
2017-02-16T16:30:31.378Z,0
2017-02-16T16:31:41.130Z,0
2017-02-16T16:32:51.346Z,0
2017-02-16T16:34:01.099Z,0
2017-02-16T16:35:10.928Z,0
2017-02-16T16:36:21.805Z,0
2017-02-16T16:37:31.116Z,0
2017-02-16T16:38:40.884Z,0
2017-02-16T16:39:50.870Z,0
2017-02-16T16:41:00.478Z,0
2017-02-16T16:42:09.800Z,0
2017-02-16T16:43:19.778Z,0
2017-02-16T16:44:30.529Z,0
2017-02-16T16:45:41.606Z,0
2017-02-16T16:46:52.020Z,0
2017-02-16T16:48:01.886Z,0
2017-02-16T16:49:11.467Z,0
2017-02-16T16:50:21.827Z,0
2017-02-16T16:51:31.608Z,0
2017-02-16T16:52:41.415Z,0
2017-02-16T16:53:50.742Z,0
2017-02-16T16:55:01.155Z,0
2017-02-16T16:56:11.356Z,0